Partlow, Virginia
Current Conditions -  °F | °C
As of 1:15 AM on Sunday 26 Oct 2014 (Local Time) from K7W4 Reporting Station
Clear Clear  
Wind Chill: 55°   Ceiling: Unl
Heat Index: 55°   Visibility: 10mi
Dew Point: 46°   Wind: 6mph
Humidity: 71%   Direction: 230°SW
Pressure: 29.74"   Gusts: NA
Location:  38.08°N, 77.66°W
Report Text: K7W4 260515Z AUTO 23005KT 10SM CLR 13/08 A2974 RMK AO1 T01270075
Loading
Personal Weather Stations






























Interactive Weather Map
Tropical Storm Tracking
New forecast layout! Learn more

10-Day Weather Forecast

Advertisements
Track Severe Weather on mobile